createdAt,value
2018-09-23T18:41:04.808Z,938.41
2018-09-23T18:42:04.753Z,938.54
2018-09-23T18:43:04.934Z,938.63
2018-09-23T18:44:05.230Z,938.58
2018-09-23T18:45:04.589Z,938.56
2018-09-23T18:46:04.594Z,938.53
2018-09-23T18:47:04.557Z,938.58
2018-09-23T18:48:04.553Z,938.64
2018-09-23T18:49:04.533Z,938.70
2018-09-23T18:50:04.560Z,938.85
2018-09-23T18:51:05.477Z,938.83
2018-09-23T18:52:04.541Z,938.93
2018-09-23T18:53:04.494Z,939.01
2018-09-23T18:54:04.480Z,938.95
2018-09-23T18:55:05.483Z,938.96
2018-09-23T18:56:04.461Z,939.12
2018-09-23T18:57:04.457Z,939.32
2018-09-23T18:58:04.440Z,939.65
2018-09-23T18:59:04.483Z,939.71
2018-09-23T19:00:04.972Z,939.58
2018-09-23T19:01:04.405Z,939.69
2018-09-23T19:02:04.409Z,939.81
2018-09-23T19:03:04.936Z,939.93
2018-09-23T19:04:04.414Z,939.85
2018-09-23T19:05:04.362Z,939.77
2018-09-23T19:06:04.420Z,939.67
2018-09-23T19:07:04.333Z,939.80
2018-09-23T19:08:06.010Z,939.86
2018-09-23T19:09:05.320Z,940.00
2018-09-23T19:10:04.336Z,940.14
2018-09-23T19:11:04.321Z,940.31
2018-09-23T19:12:04.284Z,940.22
2018-09-23T19:13:04.275Z,940.19
2018-09-23T19:14:04.267Z,940.28
2018-09-23T19:15:04.264Z,940.19
2018-09-23T19:16:04.245Z,940.18
2018-09-23T19:17:04.240Z,940.16
2018-09-23T19:18:04.215Z,940.09
2018-09-23T19:19:04.202Z,940.07
2018-09-23T19:20:04.205Z,940.16
2018-09-23T19:21:04.207Z,940.32
2018-09-23T19:22:12.886Z,940.45
2018-09-23T19:23:04.251Z,940.41
2018-09-23T19:24:04.176Z,940.55
2018-09-23T19:25:04.239Z,940.52
2018-09-23T19:26:04.997Z,940.59
2018-09-23T19:27:04.249Z,940.68
2018-09-23T19:28:04.181Z,940.72
2018-09-23T19:29:04.086Z,940.60
2018-09-23T19:30:04.092Z,940.74
2018-09-23T19:31:05.956Z,940.83
2018-09-23T19:32:04.067Z,940.98
2018-09-23T19:33:04.053Z,940.99
2018-09-23T19:34:04.075Z,940.95
2018-09-23T19:35:04.021Z,941.01
2018-09-23T19:36:04.021Z,940.99
2018-09-23T19:37:04.002Z,940.93
2018-09-23T19:38:04.005Z,941.13
2018-09-23T19:39:04.014Z,941.25
2018-09-23T19:40:04.004Z,941.37
2018-09-23T19:41:04.454Z,941.47
2018-09-23T19:42:04.474Z,941.59
2018-09-23T19:43:04.018Z,941.74
2018-09-23T19:44:03.934Z,941.85
2018-09-23T19:45:03.915Z,942.06
2018-09-23T19:46:03.928Z,942.08
2018-09-23T19:47:03.904Z,942.10
2018-09-23T19:48:03.875Z,942.06
2018-09-23T19:49:03.990Z,942.17
2018-09-23T19:50:03.999Z,942.09
2018-09-23T19:51:03.849Z,942.11
2018-09-23T19:52:03.829Z,942.15
2018-09-23T19:53:03.821Z,941.97
2018-09-23T19:54:03.810Z,941.95
2018-09-23T19:55:03.828Z,941.74
2018-09-23T19:56:03.787Z,941.72
2018-09-23T19:57:03.772Z,941.80
2018-09-23T19:58:03.765Z,941.91
2018-09-23T19:59:03.761Z,941.90
2018-09-23T20:00:03.758Z,941.88
2018-09-23T20:01:03.780Z,941.94
2018-09-23T20:02:03.716Z,941.87
2018-09-23T20:03:03.708Z,942.09
2018-09-23T20:04:03.710Z,942.24
2018-09-23T20:05:03.689Z,942.32
2018-09-23T20:06:03.667Z,942.30
2018-09-23T20:07:03.729Z,942.35
2018-09-23T20:08:03.670Z,942.57
2018-09-23T20:09:03.635Z,942.52
2018-09-23T20:10:03.626Z,942.46
2018-09-23T20:11:03.606Z,942.56
2018-09-23T20:12:03.616Z,942.77
2018-09-23T20:13:03.589Z,942.93
2018-09-23T20:14:03.595Z,943.08
2018-09-23T20:15:03.565Z,943.02
2018-09-23T20:16:03.560Z,943.17
2018-09-23T20:17:03.708Z,943.50
2018-09-23T20:18:03.538Z,943.70
2018-09-23T20:19:03.542Z,943.88
2018-09-23T20:20:03.534Z,944.01
2018-09-23T20:21:03.513Z,943.95
2018-09-23T20:22:03.494Z,943.91
2018-09-23T20:23:03.510Z,943.81
2018-09-23T20:24:03.478Z,943.88
2018-09-23T20:25:03.473Z,943.87
2018-09-23T20:26:03.479Z,944.10
2018-09-23T20:27:03.964Z,944.08
2018-09-23T20:28:03.436Z,943.98
2018-09-23T20:29:03.439Z,943.96
2018-09-23T20:30:03.424Z,944.17
2018-09-23T20:31:03.406Z,944.25
2018-09-23T20:32:03.404Z,944.35
2018-09-23T20:33:03.379Z,944.32
2018-09-23T20:34:03.648Z,944.46
2018-09-23T20:35:03.497Z,944.50
2018-09-23T20:36:03.389Z,944.75
2018-09-23T20:37:03.328Z,944.77
2018-09-23T20:38:03.331Z,944.86
2018-09-23T20:39:03.349Z,944.75
2018-09-23T20:40:03.310Z,944.89
2018-09-23T20:41:03.290Z,944.87
2018-09-23T20:42:03.282Z,944.90
2018-09-23T20:43:03.261Z,944.85
2018-09-23T20:44:03.254Z,944.95
2018-09-23T20:45:03.294Z,945.27
2018-09-23T20:46:03.228Z,945.19
2018-09-23T20:47:03.216Z,945.04
2018-09-23T20:48:03.206Z,945.05
2018-09-23T20:49:03.206Z,945.13
2018-09-23T20:50:03.187Z,945.25
2018-09-23T20:51:03.207Z,945.41
2018-09-23T20:52:03.171Z,945.34
2018-09-23T20:53:03.164Z,945.30
2018-09-23T20:54:03.138Z,945.32
2018-09-23T20:55:03.135Z,945.37
2018-09-23T20:56:03.142Z,945.37
2018-09-23T20:57:03.116Z,945.32
2018-09-23T20:58:03.093Z,945.31
2018-09-23T20:59:03.079Z,945.29
2018-09-23T21:00:03.078Z,945.37
2018-09-23T21:01:03.056Z,945.49
2018-09-23T21:02:03.097Z,945.58
2018-09-23T21:03:03.053Z,945.66
2018-09-23T21:04:03.030Z,945.59
2018-09-23T21:05:03.017Z,945.62
2018-09-23T21:06:03.015Z,945.55
2018-09-23T21:07:03.015Z,945.49
2018-09-23T21:08:02.984Z,945.54
2018-09-23T21:09:02.992Z,945.66
2018-09-23T21:10:02.981Z,945.95
2018-09-23T21:11:02.940Z,946.02
2018-09-23T21:12:02.935Z,946.15
2018-09-23T21:13:02.962Z,946.22
2018-09-23T21:14:02.918Z,946.27
2018-09-23T21:15:02.931Z,946.45
2018-09-23T21:16:02.894Z,946.40
2018-09-23T21:17:02.881Z,946.31
2018-09-23T21:18:02.868Z,946.20
2018-09-23T21:19:02.866Z,946.24
2018-09-23T21:20:02.845Z,946.37
2018-09-23T21:21:02.854Z,946.34
2018-09-23T21:22:02.820Z,946.47
2018-09-23T21:23:02.814Z,946.52
2018-09-23T21:24:02.818Z,946.69
2018-09-23T21:25:02.788Z,946.78
2018-09-23T21:26:02.776Z,946.69
2018-09-23T21:27:02.807Z,946.51
2018-09-23T21:28:02.758Z,946.68
2018-09-23T21:29:02.761Z,946.74
2018-09-23T21:30:02.743Z,946.70
2018-09-23T21:31:02.717Z,946.64
2018-09-23T21:32:02.717Z,946.80
2018-09-23T21:33:02.718Z,947.07
2018-09-23T21:34:02.690Z,946.96
2018-09-23T21:35:02.708Z,946.98
2018-09-23T21:36:02.671Z,947.01
2018-09-23T21:37:02.653Z,947.03
2018-09-23T21:38:02.648Z,947.11
2018-09-23T21:39:02.650Z,947.06
2018-09-23T21:40:02.623Z,947.16
2018-09-23T21:41:02.620Z,947.22
2018-09-23T21:42:02.599Z,947.21
2018-09-23T21:43:02.589Z,947.22
2018-09-23T21:44:02.584Z,947.41
2018-09-23T21:45:02.584Z,947.47
2018-09-23T21:46:02.582Z,947.47
2018-09-23T21:47:02.536Z,947.47
2018-09-23T21:48:02.534Z,947.67
2018-09-23T21:49:02.518Z,947.70
2018-09-23T21:50:02.512Z,947.72
2018-09-23T21:51:02.519Z,947.75
2018-09-23T21:52:02.493Z,947.80
2018-09-23T21:53:02.477Z,947.86
2018-09-23T21:54:02.462Z,947.91
2018-09-23T21:55:02.460Z,948.01
2018-09-23T21:56:02.443Z,948.09
2018-09-23T21:57:02.469Z,948.03
2018-09-23T21:58:02.411Z,948.11
2018-09-23T21:59:02.409Z,948.14
2018-09-23T22:00:02.393Z,948.03
2018-09-23T22:01:02.383Z,948.02
2018-09-23T22:02:02.366Z,948.08
2018-09-23T22:03:02.385Z,948.16
2018-09-23T22:04:02.350Z,948.21
2018-09-23T22:05:02.372Z,948.22
2018-09-23T22:06:02.329Z,948.27
2018-09-23T22:07:02.320Z,948.28
2018-09-23T22:08:02.331Z,948.35
2018-09-23T22:09:02.310Z,948.56
2018-09-23T22:10:02.285Z,948.56
2018-09-23T22:11:02.282Z,948.58
2018-09-23T22:12:02.270Z,948.69
2018-09-23T22:13:02.260Z,948.76
2018-09-23T22:14:02.282Z,948.78
2018-09-23T22:15:02.241Z,948.74
2018-09-23T22:16:02.225Z,948.78
2018-09-23T22:17:02.215Z,948.81
2018-09-23T22:18:02.186Z,948.83
2018-09-23T22:19:02.233Z,948.85
2018-09-23T22:20:02.183Z,948.98
2018-09-23T22:21:02.186Z,948.96
2018-09-23T22:22:02.148Z,949.00
2018-09-23T22:23:02.146Z,948.91
2018-09-23T22:24:02.147Z,949.04
2018-09-23T22:25:02.129Z,949.11
2018-09-23T22:26:02.121Z,949.18
2018-09-23T22:27:02.099Z,949.20
2018-09-23T22:28:02.081Z,949.23
2018-09-23T22:29:02.096Z,949.16
2018-09-23T22:30:02.108Z,949.14
2018-09-23T22:31:02.056Z,949.16
2018-09-23T22:32:02.044Z,949.17
2018-09-23T22:33:02.037Z,949.12
2018-09-23T22:34:02.021Z,949.16
2018-09-23T22:35:02.021Z,949.21
2018-09-23T22:36:02.008Z,949.17
2018-09-23T22:37:01.993Z,949.21
2018-09-23T22:38:01.974Z,949.17
2018-09-23T22:39:01.959Z,949.22
2018-09-23T22:40:01.951Z,949.22
2018-09-23T22:41:01.976Z,949.25
2018-09-23T22:42:01.985Z,949.18
2018-09-23T22:43:01.911Z,949.26
2018-09-23T22:44:01.930Z,949.29
2018-09-23T22:45:01.892Z,949.29
2018-09-23T22:46:01.883Z,949.37
2018-09-23T22:47:01.897Z,949.38
2018-09-23T22:48:01.860Z,949.46
2018-09-23T22:49:01.859Z,949.32
2018-09-23T22:50:01.838Z,949.43
2018-09-23T22:51:01.824Z,949.40
2018-09-23T22:52:01.852Z,949.41
2018-09-23T22:53:01.827Z,949.48
2018-09-23T22:54:01.786Z,949.45
2018-09-23T22:55:01.784Z,949.41
2018-09-23T22:56:01.764Z,949.50
2018-09-23T22:57:01.757Z,949.48
2018-09-23T22:58:01.760Z,949.49
2018-09-23T22:59:01.747Z,949.56
2018-09-23T23:00:01.724Z,949.52
2018-09-23T23:01:01.716Z,949.59
2018-09-23T23:02:01.699Z,949.59
2018-09-23T23:03:01.710Z,949.67
2018-09-23T23:04:01.681Z,949.68
2018-09-23T23:05:01.686Z,949.66
2018-09-23T23:06:01.651Z,949.73
2018-09-23T23:07:01.656Z,949.70
2018-09-23T23:08:01.630Z,949.72
2018-09-23T23:09:01.635Z,949.76
2018-09-23T23:10:01.608Z,949.84
2018-09-23T23:11:01.616Z,949.85
2018-09-23T23:12:01.582Z,949.84
2018-09-23T23:13:01.571Z,949.83
2018-09-23T23:14:01.621Z,949.89
2018-09-23T23:15:01.564Z,949.83
2018-09-23T23:16:01.542Z,949.87
2018-09-23T23:17:01.549Z,949.90
2018-09-23T23:18:01.522Z,949.94
2018-09-23T23:19:01.509Z,949.95
2018-09-23T23:20:01.515Z,949.98
2018-09-23T23:21:01.491Z,949.97
2018-09-23T23:22:01.481Z,950.10
2018-09-23T23:23:01.484Z,950.11
2018-09-23T23:24:01.458Z,950.19
2018-09-23T23:25:01.465Z,950.21
2018-09-23T23:26:01.445Z,950.34
2018-09-23T23:27:01.420Z,950.34
2018-09-23T23:28:01.410Z,950.46
2018-09-23T23:29:01.414Z,950.47
2018-09-23T23:30:01.396Z,950.46
2018-09-23T23:31:01.389Z,950.58
2018-09-23T23:32:01.368Z,950.60
2018-09-23T23:33:01.355Z,950.64
2018-09-23T23:34:01.340Z,950.62
2018-09-23T23:35:01.332Z,950.51
2018-09-23T23:36:01.365Z,950.73
2018-09-23T23:37:01.304Z,950.73
2018-09-23T23:38:01.307Z,950.79
2018-09-23T23:39:01.290Z,950.89
2018-09-23T23:40:01.273Z,950.90
2018-09-23T23:41:01.269Z,950.88
2018-09-23T23:42:01.289Z,951.00
2018-09-23T23:43:01.242Z,950.95
2018-09-23T23:44:01.254Z,951.08
2018-09-23T23:45:01.220Z,951.16
2018-09-23T23:46:01.203Z,951.29
2018-09-23T23:47:01.213Z,951.26
2018-09-23T23:48:01.200Z,951.30
2018-09-23T23:49:01.183Z,951.27
2018-09-23T23:50:01.166Z,951.36
2018-09-23T23:51:01.153Z,951.34
2018-09-23T23:52:01.149Z,951.28
2018-09-23T23:53:01.131Z,951.29
2018-09-23T23:54:01.136Z,951.25
2018-09-23T23:55:01.112Z,951.22
2018-09-23T23:56:01.093Z,951.28
2018-09-23T23:57:01.095Z,951.31
2018-09-23T23:58:01.088Z,951.33
2018-09-23T23:59:01.062Z,951.37
